Main page
METAR-TAF:

METAR-TAF

Airports :

Mandalay International Airport

Mandalay, Myanmar

latitude: 21-59N, longitude: 096-06E, elevation: 74 m

Current weather observation

The report was made 55 minutes ago, at 00:30 UTC
Wind 4 kt from the North/Northwest
Temperature 27°C
Humidity 62%
Pressure 1008 hPa
Visibility: 5000 m
Few clouds at a height of 2000 ft
haze

METAR: VYMD 240030Z 34004KT 5000 HZ FEW020 27/19 Q1008

Time: 07:55 (01:25 UTC)

Forecast

The report was made 2 hours and 25 minutes ago, at 23:00 UTC
Forecast valid from 24 at 00 UTC to 24 at 24 UTC
Wind 6 kt from the South
Visibility: 6000 m
Scattered clouds at a height of 2000 ft
Temporary
from 24 at 00 UTC to 24 at 06 UTC
Wind 5 kt from the Southeast
Visibility: 5000 m
haze

TAF: VYMD 232300Z 2400/2424 19006KT 6000 SCT020 TEMPO 2400/2406 14005KT 5000 HZ

Weather observations and forecasts of more than 4000 airports (METAR and TAF reports).

The available stations are represented by yellow and red dots on the map.

Hover mouse over dot to see the name of the station.

Then click to see weather observations and forecasts.

To change the map : click on the green buttons with a black cross to zoom in, on the green button with a dash to zoom out, or on the green arrows for adjacent maps.


METAR-TAF: